Time;durP1;ratioP1;P1;durP2;ratioP2;P2;SDS_P1;SDS_P2;PMS_P1;PMS_P2;Temp;Humidity;BMP_temperature;BMP_pressure;BME280_temperature;BME280_humidity;BME280_pressure;Samples;Min_cycle;Max_cycle;Signal;HPM_P1;HPM_P2
2022/04/22 00:01:26;;;;;;;;;;;10.70;87.60;;;;;;4971813;28;19958;-90
2022/04/22 00:03:51;;;;;;;;;;;10.70;87.70;;;;;;4972003;28;19943;-89
2022/04/22 00:06:17;;;;;;;;;;;10.70;87.80;;;;;;4972014;28;19954;-89
2022/04/22 00:08:43;;;;;;;;;;;10.70;87.90;;;;;;4972074;28;19958;-89
2022/04/22 00:13:54;;;;;;;;;;;10.70;88.10;;;;;;4971919;28;19950;-89
2022/04/22 00:16:21;;;;;;;;;;;10.70;88.40;;;;;;4971769;28;20139;-89
2022/04/22 00:18:46;;;;;;;;;;;10.70;88.40;;;;;;4971933;28;20417;-89
2022/04/22 00:21:12;;;;;;;;;;;10.70;88.50;;;;;;4971609;28;19996;-89
2022/04/22 00:23:37;;;;;;;;;;;10.70;88.60;;;;;;4971768;28;19958;-89
2022/04/22 00:26:03;;;;;;;;;;;10.80;88.60;;;;;;4971790;28;20041;-89
2022/04/22 00:28:29;;;;;;;;;;;10.80;88.60;;;;;;4971740;28;19949;-89
2022/04/22 00:30:54;;;;;;;;;;;10.80;88.90;;;;;;4971265;28;19945;-89
2022/04/22 00:33:20;;;;;;;;;;;10.80;89.30;;;;;;4971484;28;20039;-89
2022/04/22 00:35:45;;;;;;;;;;;10.80;89.40;;;;;;4971330;28;20030;-89
2022/04/22 00:38:11;;;;;;;;;;;10.80;89.80;;;;;;4971549;28;19938;-89
2022/04/22 00:40:37;;;;;;;;;;;10.80;90.20;;;;;;4971372;28;19951;-89
2022/04/22 00:43:19;;;;;;;;;;;10.80;90.50;;;;;;4971475;28;20021;-89
2022/04/22 00:45:45;;;;;;;;;;;10.80;90.70;;;;;;5038162;28;19958;-89
2022/04/22 00:48:11;;;;;;;;;;;10.80;90.60;;;;;;4971453;28;19950;-89
2022/04/22 00:50:37;;;;;;;;;;;10.80;90.60;;;;;;4971180;28;20311;-89
2022/04/22 00:53:03;;;;;;;;;;;10.80;90.60;;;;;;4971661;28;19954;-89
2022/04/22 00:55:29;;;;;;;;;;;10.80;90.60;;;;;;4971325;28;19963;-89
2022/04/22 00:57:55;;;;;;;;;;;10.80;90.60;;;;;;4971448;28;19990;-89
2022/04/22 01:00:21;;;;;;;;;;;10.90;90.40;;;;;;4971033;28;20369;-90
2022/04/22 01:02:47;;;;;;;;;;;10.80;90.20;;;;;;4971441;28;19946;-89
2022/04/22 01:10:41;;;;;;;;;;;10.90;89.80;;;;;;4971198;28;20487;-89
2022/04/22 01:13:07;;;;;;;;;;;10.90;89.60;;;;;;4971132;28;19946;-89
2022/04/22 01:15:36;;;;;;;;;;;10.90;89.50;;;;;;4971437;28;19966;-89
2022/04/22 01:18:02;;;;;;;;;;;10.90;89.50;;;;;;4971102;28;20158;-89
2022/04/22 01:20:28;;;;;;;;;;;10.90;89.50;;;;;;4970992;28;20399;-89
2022/04/22 01:22:53;;;;;;;;;;;10.90;89.40;;;;;;4971191;28;19948;-89
2022/04/22 01:25:19;;;;;;;;;;;10.90;89.50;;;;;;4971025;28;20454;-89
2022/04/22 01:27:49;;;;;;;;;;;11.00;89.60;;;;;;4970968;28;20356;-89
2022/04/22 01:30:14;;;;;;;;;;;10.90;89.50;;;;;;4970860;28;19941;-89
2022/04/22 01:32:41;;;;;;;;;;;11.00;89.50;;;;;;4970869;28;19948;-89
2022/04/22 01:35:06;;;;;;;;;;;11.00;89.60;;;;;;4970895;28;20012;-89
2022/04/22 01:37:32;;;;;;;;;;;11.00;89.70;;;;;;4970814;28;20021;-90
2022/04/22 01:39:58;;;;;;;;;;;11.00;89.70;;;;;;4970764;28;20410;-90
2022/04/22 01:42:23;;;;;;;;;;;11.00;89.70;;;;;;4970861;28;19949;-89
2022/04/22 01:44:49;;;;;;;;;;;11.10;89.80;;;;;;4974115;28;19947;-89
2022/04/22 01:47:15;;;;;;;;;;;11.00;89.90;;;;;;4974148;28;19938;-89
2022/04/22 01:49:41;;;;;;;;;;;11.00;89.90;;;;;;4973988;28;19944;-89
2022/04/22 01:52:07;;;;;;;;;;;11.10;89.90;;;;;;4973562;28;19951;-89
2022/04/22 01:54:32;;;;;;;;;;;11.00;90.00;;;;;;4974258;28;20004;-90
2022/04/22 01:56:58;;;;;;;;;;;11.00;90.00;;;;;;4973728;28;20061;-89
2022/04/22 01:59:23;;;;;;;;;;;11.00;90.00;;;;;;4973907;28;20368;-89
2022/04/22 02:01:49;;;;;;;;;;;11.00;89.80;;;;;;4973682;28;20377;-89
2022/04/22 02:04:14;;;;;;;;;;;11.10;89.80;;;;;;4973814;28;19965;-89
2022/04/22 02:06:40;;;;;;;;;;;11.10;89.80;;;;;;4973831;28;20411;-89
2022/04/22 02:09:05;;;;;;;;;;;11.10;89.80;;;;;;4973810;28;20431;-89
2022/04/22 02:11:32;;;;;;;;;;;11.10;89.70;;;;;;4973706;28;19959;-89
2022/04/22 02:13:57;;;;;;;;;;;11.10;89.70;;;;;;4973687;28;20397;-89
2022/04/22 02:16:23;;;;;;;;;;;11.10;89.70;;;;;;4973979;28;19978;-89
2022/04/22 02:18:49;;;;;;;;;;;11.10;89.70;;;;;;4973599;28;19946;-89
2022/04/22 02:21:15;;;;;;;;;;;11.10;89.70;;;;;;4973341;28;20410;-89
2022/04/22 02:23:40;;;;;;;;;;;11.10;89.80;;;;;;5040248;28;19953;-89
2022/04/22 02:26:06;;;;;;;;;;;11.10;89.90;;;;;;5040543;28;20087;-89
2022/04/22 02:28:32;;;;;;;;;;;11.00;89.90;;;;;;4973458;28;20061;-89
2022/04/22 02:31:01;;;;;;;;;;;11.00;89.70;;;;;;4973545;28;19998;-89
2022/04/22 02:33:27;;;;;;;;;;;11.00;89.60;;;;;;4973292;28;20030;-89
2022/04/22 02:35:53;;;;;;;;;;;10.90;89.70;;;;;;4973206;28;20046;-89
2022/04/22 02:38:18;;;;;;;;;;;10.90;89.80;;;;;;4973338;28;20464;-89
2022/04/22 02:46:12;;;;;;;;;;;10.90;89.60;;;;;;4973199;28;20417;-89
2022/04/22 02:48:38;;;;;;;;;;;10.90;89.50;;;;;;4973083;28;19937;-89
2022/04/22 02:51:03;;;;;;;;;;;10.90;89.30;;;;;;4972832;28;19951;-89
2022/04/22 02:53:29;;;;;;;;;;;10.90;89.20;;;;;;4973101;28;20397;-89
2022/04/22 02:55:54;;;;;;;;;;;10.90;89.00;;;;;;4972920;28;19981;-89
2022/04/22 02:58:20;;;;;;;;;;;10.90;88.70;;;;;;4973010;28;20323;-89
2022/04/22 03:00:45;;;;;;;;;;;11.00;88.50;;;;;;4972879;28;20044;-90
2022/04/22 03:03:11;;;;;;;;;;;11.00;88.20;;;;;;4972970;28;19941;-89
2022/04/22 03:05:37;;;;;;;;;;;11.00;88.00;;;;;;4972932;28;19986;-89
2022/04/22 03:08:03;;;;;;;;;;;11.10;87.90;;;;;;4973018;28;19990;-89
2022/04/22 03:10:29;;;;;;;;;;;11.10;87.70;;;;;;4972534;28;19960;-89
2022/04/22 03:12:55;;;;;;;;;;;11.10;87.60;;;;;;4973044;28;19999;-89
2022/04/22 03:15:21;;;;;;;;;;;11.10;87.40;;;;;;4972489;28;19996;-89
2022/04/22 03:17:46;;;;;;;;;;;11.10;87.30;;;;;;4972742;28;19948;-88
2022/04/22 03:20:12;;;;;;;;;;;11.10;87.30;;;;;;4972415;28;19945;-89
2022/04/22 03:22:37;;;;;;;;;;;11.10;87.10;;;;;;4972662;28;19951;-90
2022/04/22 03:25:03;;;;;;;;;;;11.20;87.10;;;;;;4972641;28;19947;-89
2022/04/22 03:27:29;;;;;;;;;;;11.20;87.20;;;;;;4972392;28;19936;-89
2022/04/22 03:29:54;;;;;;;;;;;11.20;87.10;;;;;;4972560;28;19937;-89
2022/04/22 03:32:20;;;;;;;;;;;11.30;86.90;;;;;;4972368;28;19945;-89
2022/04/22 03:34:45;;;;;;;;;;;11.30;87.00;;;;;;4972728;28;19951;-90
2022/04/22 03:37:11;;;;;;;;;;;11.30;87.00;;;;;;4972759;28;19975;-89
2022/04/22 03:39:36;;;;;;;;;;;11.30;87.00;;;;;;4972173;28;20409;-89
2022/04/22 03:42:02;;;;;;;;;;;11.30;87.00;;;;;;4972344;28;20036;-89
2022/04/22 03:44:27;;;;;;;;;;;11.40;86.90;;;;;;4972234;28;20340;-89
2022/04/22 03:46:53;;;;;;;;;;;11.40;86.80;;;;;;4972286;28;19942;-89
2022/04/22 03:49:18;;;;;;;;;;;11.40;86.70;;;;;;4972071;28;20405;-89
2022/04/22 03:51:44;;;;;;;;;;;11.40;86.70;;;;;;4972227;28;20315;-89
2022/04/22 03:54:10;;;;;;;;;;;11.40;86.70;;;;;;4972183;28;19942;-89
2022/04/22 03:59:19;;;;;;;;;;;11.50;86.60;;;;;;4972195;28;19949;-89
2022/04/22 04:01:45;;;;;;;;;;;11.50;86.30;;;;;;4972100;28;19946;-89
2022/04/22 04:04:10;;;;;;;;;;;11.50;86.20;;;;;;4972086;28;19949;-90
2022/04/22 04:06:36;;;;;;;;;;;11.60;86.40;;;;;;4971465;28;19948;-89
2022/04/22 04:17:14;;;;;;;;;;;11.50;87.00;;;;;;4971796;28;20087;-89
2022/04/22 04:25:09;;;;;;;;;;;11.50;86.90;;;;;;4971757;28;20041;-89
2022/04/22 04:27:36;;;;;;;;;;;11.50;87.00;;;;;;4971427;28;19986;-89
2022/04/22 04:30:02;;;;;;;;;;;11.50;87.10;;;;;;5038114;28;20304;-90
2022/04/22 04:32:28;;;;;;;;;;;11.50;87.20;;;;;;4971698;28;19947;-89
2022/04/22 04:34:53;;;;;;;;;;;11.50;87.30;;;;;;4988678;23;19942;-89
2022/04/22 04:37:19;;;;;;;;;;;11.50;87.40;;;;;;4990903;28;19971;-90
2022/04/22 04:39:44;;;;;;;;;;;11.50;87.50;;;;;;4972334;28;19948;-89
2022/04/22 04:42:10;;;;;;;;;;;11.50;87.60;;;;;;5037999;28;19999;-89
2022/04/22 04:44:37;;;;;;;;;;;11.50;87.70;;;;;;4971507;28;19945;-90
2022/04/22 04:47:03;;;;;;;;;;;11.60;87.80;;;;;;4971370;28;19947;-89
2022/04/22 04:49:29;;;;;;;;;;;11.60;88.00;;;;;;4987184;28;20294;-89
2022/04/22 04:51:54;;;;;;;;;;;11.50;88.30;;;;;;4990815;28;19943;-90
2022/04/22 04:54:20;;;;;;;;;;;11.50;88.70;;;;;;4990793;28;19944;-90
2022/04/22 04:56:46;;;;;;;;;;;11.50;89.00;;;;;;4983455;28;20420;-90
2022/04/22 04:59:11;;;;;;;;;;;11.50;89.10;;;;;;4986338;28;20038;-90
2022/04/22 05:01:37;;;;;;;;;;;11.50;89.20;;;;;;4981029;28;19984;-90
2022/04/22 05:04:03;;;;;;;;;;;11.50;89.30;;;;;;4985105;28;19958;-89
2022/04/22 05:06:28;;;;;;;;;;;11.40;89.20;;;;;;4990080;28;19951;-90
2022/04/22 05:08:55;;;;;;;;;;;11.40;89.20;;;;;;4985292;28;20532;-90
2022/04/22 05:11:21;;;;;;;;;;;11.50;89.30;;;;;;5057700;28;19957;-90
2022/04/22 05:13:47;;;;;;;;;;;11.50;89.40;;;;;;4989363;28;19953;-90
2022/04/22 05:16:13;;;;;;;;;;;11.50;89.60;;;;;;4990317;28;19966;-89
2022/04/22 05:18:40;;;;;;;;;;;11.50;89.40;;;;;;4983102;28;19946;-89
2022/04/22 05:21:05;;;;;;;;;;;11.50;89.10;;;;;;4993329;28;19947;-90
2022/04/22 05:23:31;;;;;;;;;;;11.50;88.60;;;;;;4993359;28;20288;-89
2022/04/22 05:25:56;;;;;;;;;;;11.60;88.40;;;;;;4993451;28;20411;-90
2022/04/22 05:28:22;;;;;;;;;;;11.60;88.10;;;;;;4992511;28;19950;-89
2022/04/22 05:33:33;;;;;;;;;;;11.60;87.60;;;;;;4986592;28;19953;-89
2022/04/22 05:35:59;;;;;;;;;;;11.70;87.60;;;;;;5006841;28;20484;-89
2022/04/22 05:38:24;;;;;;;;;;;11.70;87.60;;;;;;4989363;28;19943;-89
2022/04/22 05:40:50;;;;;;;;;;;11.80;87.60;;;;;;4988110;28;20310;-89
2022/04/22 05:43:15;;;;;;;;;;;11.80;87.70;;;;;;4991608;28;20493;-89
2022/04/22 05:45:41;;;;;;;;;;;11.80;87.40;;;;;;4992229;28;20375;-90
2022/04/22 05:48:07;;;;;;;;;;;11.80;87.30;;;;;;4991353;28;20416;-89
2022/04/22 05:50:32;;;;;;;;;;;11.90;87.10;;;;;;4994928;28;19946;-89
2022/04/22 05:52:58;;;;;;;;;;;11.90;87.10;;;;;;4984549;28;20399;-90
2022/04/22 05:55:25;;;;;;;;;;;11.90;87.00;;;;;;4985893;28;19951;-90
2022/04/22 05:57:53;;;;;;;;;;;11.90;87.20;;;;;;4989132;28;19954;-89
2022/04/22 06:00:19;;;;;;;;;;;12.00;87.00;;;;;;4992030;28;19979;-89
2022/04/22 06:02:46;;;;;;;;;;;12.00;86.60;;;;;;4995582;28;19949;-90
2022/04/22 06:05:13;;;;;;;;;;;12.00;86.70;;;;;;5065102;28;19944;-89
2022/04/22 06:07:39;;;;;;;;;;;12.10;86.60;;;;;;4990655;28;19951;-89
2022/04/22 06:12:50;;;;;;;;;;;12.10;86.30;;;;;;4992119;28;19950;-89
2022/04/22 06:15:16;;;;;;;;;;;12.20;86.30;;;;;;4994636;28;19955;-89
2022/04/22 06:17:41;;;;;;;;;;;12.20;86.40;;;;;;4987618;28;19949;-89
2022/04/22 06:20:07;;;;;;;;;;;12.20;86.50;;;;;;4991400;28;20041;-89
2022/04/22 06:22:33;;;;;;;;;;;12.20;86.50;;;;;;4990141;28;19947;-89
2022/04/22 06:24:59;;;;;;;;;;;12.20;86.70;;;;;;4991651;28;20008;-89
2022/04/22 06:27:25;;;;;;;;;;;12.20;86.80;;;;;;5063705;28;20305;-89
2022/04/22 06:29:52;;;;;;;;;;;12.20;86.90;;;;;;4985953;28;20057;-89
2022/04/22 06:32:18;;;;;;;;;;;12.30;86.80;;;;;;5058960;28;19946;-89
2022/04/22 06:34:43;;;;;;;;;;;12.30;86.80;;;;;;4992739;28;19948;-90
2022/04/22 06:37:11;;;;;;;;;;;12.30;87.10;;;;;;4987469;28;20030;-89
2022/04/22 06:45:46;;;;;;;;;;;12.30;87.30;;;;;;4989651;28;19966;-89
2022/04/22 06:47:51;;;;;;;;;;;12.30;87.10;;;;;;5018456;28;20343;-89
2022/04/22 06:50:19;;;;;;;;;;;12.40;86.60;;;;;;4987562;28;19940;-89
2022/04/22 06:52:47;;;;;;;;;;;12.40;87.00;;;;;;4989153;28;19943;-89
2022/04/22 06:55:13;;;;;;;;;;;12.40;87.00;;;;;;4980275;28;19948;-89
2022/04/22 06:57:39;;;;;;;;;;;12.40;87.00;;;;;;4996891;28;19970;-89
2022/04/22 07:00:05;;;;;;;;;;;12.40;87.00;;;;;;4992171;28;20313;-89
2022/04/22 07:02:31;;;;;;;;;;;12.40;87.10;;;;;;4991137;28;19956;-89
2022/04/22 07:04:57;;;;;;;;;;;12.40;87.10;;;;;;4992713;28;19955;-89
2022/04/22 07:07:22;;;;;;;;;;;12.50;87.00;;;;;;4984275;28;19949;-89
2022/04/22 07:09:48;;;;;;;;;;;12.60;86.70;;;;;;4986398;28;20364;-89
2022/04/22 07:12:15;;;;;;;;;;;12.60;86.60;;;;;;4991944;28;19951;-89
2022/04/22 07:14:42;;;;;;;;;;;12.60;86.70;;;;;;4995643;28;20414;-89
2022/04/22 07:17:09;;;;;;;;;;;12.60;86.70;;;;;;4985021;28;20005;-89
2022/04/22 07:19:34;;;;;;;;;;;12.60;86.50;;;;;;4986653;28;20426;-89
2022/04/22 07:22:00;;;;;;;;;;;12.70;86.70;;;;;;4985993;28;19952;-89
2022/04/22 07:24:26;;;;;;;;;;;12.70;86.30;;;;;;4994705;28;20574;-89
2022/04/22 07:26:52;;;;;;;;;;;12.80;86.30;;;;;;4997349;28;19955;-89
2022/04/22 07:29:17;;;;;;;;;;;12.80;86.30;;;;;;4991193;28;20010;-89
2022/04/22 07:31:43;;;;;;;;;;;12.90;86.20;;;;;;4991927;28;20019;-89
2022/04/22 07:34:09;;;;;;;;;;;12.90;86.40;;;;;;4991761;28;20346;-89
2022/04/22 07:36:35;;;;;;;;;;;12.90;86.10;;;;;;4985541;28;19969;-89
2022/04/22 07:39:01;;;;;;;;;;;12.90;85.90;;;;;;4986544;28;19969;-89
2022/04/22 07:41:27;;;;;;;;;;;13.00;86.10;;;;;;4991367;28;20333;-89
2022/04/22 07:46:47;;;;;;;;;;;13.10;85.80;;;;;;4986543;28;19995;-89
2022/04/22 07:49:12;;;;;;;;;;;13.10;85.70;;;;;;4990820;28;19944;-89
2022/04/22 07:51:40;;;;;;;;;;;13.10;85.80;;;;;;4991606;28;20041;-89
2022/04/22 07:54:06;;;;;;;;;;;13.10;86.00;;;;;;4989837;28;19968;-89
2022/04/22 07:56:31;;;;;;;;;;;13.10;85.90;;;;;;4985737;28;19963;-89
2022/04/22 07:58:57;;;;;;;;;;;13.20;85.80;;;;;;4989523;28;20006;-89
2022/04/22 08:01:23;;;;;;;;;;;13.10;85.20;;;;;;4991014;28;19991;-89
2022/04/22 08:03:49;;;;;;;;;;;13.20;85.70;;;;;;4989974;28;20038;-89
2022/04/22 08:06:14;;;;;;;;;;;13.20;86.10;;;;;;4990350;28;20438;-89
2022/04/22 08:08:40;;;;;;;;;;;13.20;86.30;;;;;;4990723;28;19972;-89
2022/04/22 08:11:06;;;;;;;;;;;13.10;86.40;;;;;;5057611;28;19959;-89
2022/04/22 08:13:32;;;;;;;;;;;13.20;86.30;;;;;;4990258;28;19948;-89
2022/04/22 08:15:58;;;;;;;;;;;13.20;86.20;;;;;;5022794;28;19983;-89
2022/04/22 08:18:24;;;;;;;;;;;13.20;86.10;;;;;;4987589;28;19981;-89
2022/04/22 08:20:50;;;;;;;;;;;13.20;85.90;;;;;;4985741;28;19983;-89
2022/04/22 08:23:20;;;;;;;;;;;13.30;86.10;;;;;;4987415;28;20003;-90
2022/04/22 08:25:45;;;;;;;;;;;13.40;85.90;;;;;;4987333;28;19950;-90
2022/04/22 08:28:11;;;;;;;;;;;13.40;85.50;;;;;;4983492;28;19944;-89
2022/04/22 08:30:36;;;;;;;;;;;13.50;85.30;;;;;;4986126;28;19952;-89
2022/04/22 08:33:02;;;;;;;;;;;13.50;85.20;;;;;;4980420;28;20090;-90
2022/04/22 08:35:28;;;;;;;;;;;13.60;85.40;;;;;;5005767;28;19977;-89
2022/04/22 08:37:54;;;;;;;;;;;13.60;85.00;;;;;;4989771;28;20423;-90
2022/04/22 08:40:19;;;;;;;;;;;13.60;84.90;;;;;;4992085;28;19945;-89
2022/04/22 08:42:46;;;;;;;;;;;13.60;85.10;;;;;;4988731;28;20410;-89
2022/04/22 08:45:12;;;;;;;;;;;13.60;85.10;;;;;;4980695;28;19947;-89
2022/04/22 08:50:27;;;;;;;;;;;13.50;84.00;;;;;;4964017;28;19942;-89
2022/04/22 08:52:57;;;;;;;;;;;13.40;84.20;;;;;;4991911;28;19946;-89
2022/04/22 08:55:29;;;;;;;;;;;13.40;84.20;;;;;;4981466;28;19947;-89
2022/04/22 08:57:55;;;;;;;;;;;13.40;84.70;;;;;;5058413;28;19950;-90
2022/04/22 09:00:24;;;;;;;;;;;13.50;85.10;;;;;;4993180;28;19990;-90
2022/04/22 09:02:51;;;;;;;;;;;13.50;85.20;;;;;;4991141;28;19954;-89
2022/04/22 09:05:16;;;;;;;;;;;13.50;84.30;;;;;;4982816;28;20005;-90
2022/04/22 09:07:42;;;;;;;;;;;13.40;84.30;;;;;;5008443;28;20004;-89
2022/04/22 09:10:08;;;;;;;;;;;13.50;84.40;;;;;;5012139;28;20469;-89
2022/04/22 09:12:35;;;;;;;;;;;13.50;84.10;;;;;;5007563;28;19954;-90
2022/04/22 09:15:00;;;;;;;;;;;13.50;84.10;;;;;;4991341;28;19943;-89
2022/04/22 09:17:27;;;;;;;;;;;13.60;84.40;;;;;;4982525;28;20339;-89
2022/04/22 09:19:53;;;;;;;;;;;13.50;83.50;;;;;;4979678;28;20697;-89
2022/04/22 09:22:22;;;;;;;;;;;13.60;83.60;;;;;;5006947;28;20373;-89
2022/04/22 09:24:49;;;;;;;;;;;13.50;83.60;;;;;;4977516;28;19942;-89
2022/04/22 09:27:14;;;;;;;;;;;13.40;82.50;;;;;;4985369;28;19948;-90
2022/04/22 09:29:59;;;;;;;;;;;13.40;83.10;;;;;;4988039;28;19987;-89
2022/04/22 09:32:29;;;;;;;;;;;13.40;83.40;;;;;;5068798;28;19946;-90
2022/04/22 09:35:05;;;;;;;;;;;13.40;84.00;;;;;;5007209;28;19983;-89
2022/04/22 09:42:59;;;;;;;;;;;13.40;84.40;;;;;;4982331;28;20039;-90
2022/04/22 09:45:34;;;;;;;;;;;13.50;84.10;;;;;;4986900;28;20000;-88
2022/04/22 09:48:00;;;;;;;;;;;13.50;84.30;;;;;;4989594;28;19946;-89
2022/04/22 09:50:42;;;;;;;;;;;13.60;84.10;;;;;;4984907;28;19995;-89
2022/04/22 09:53:09;;;;;;;;;;;13.50;84.00;;;;;;4982281;28;19968;-90
2022/04/22 09:55:36;;;;;;;;;;;13.50;84.20;;;;;;4994374;28;19954;-90
2022/04/22 09:58:02;;;;;;;;;;;13.50;84.40;;;;;;4988297;28;20008;-90
2022/04/22 10:00:29;;;;;;;;;;;13.50;84.50;;;;;;4988468;28;19959;-90
2022/04/22 10:02:54;;;;;;;;;;;13.60;84.60;;;;;;4993362;28;20311;-90
2022/04/22 10:05:24;;;;;;;;;;;13.60;84.30;;;;;;4992162;28;19966;-90
2022/04/22 10:07:53;;;;;;;;;;;13.60;84.50;;;;;;4992505;28;20095;-90
2022/04/22 10:10:23;;;;;;;;;;;13.60;84.10;;;;;;4986474;28;20442;-90
2022/04/22 10:12:49;;;;;;;;;;;13.60;84.90;;;;;;4990336;28;19943;-89
2022/04/22 10:15:19;;;;;;;;;;;13.60;85.00;;;;;;4991287;28;19953;-90
2022/04/22 10:17:46;;;;;;;;;;;13.80;84.90;;;;;;4990580;28;20074;-90
2022/04/22 10:20:12;;;;;;;;;;;13.90;84.50;;;;;;4993035;28;19982;-90
2022/04/22 10:22:37;;;;;;;;;;;13.90;83.90;;;;;;4983387;28;19996;-89
2022/04/22 10:25:04;;;;;;;;;;;13.90;84.10;;;;;;4973608;28;20001;-89
2022/04/22 10:27:32;;;;;;;;;;;13.90;83.90;;;;;;4973459;28;19969;-90
2022/04/22 10:29:59;;;;;;;;;;;14.10;83.10;;;;;;4973418;28;19948;-90
2022/04/22 10:32:26;;;;;;;;;;;14.10;83.30;;;;;;4973176;28;20359;-89
2022/04/22 10:34:58;;;;;;;;;;;14.10;83.00;;;;;;4973085;28;20038;-90
2022/04/22 10:37:25;;;;;;;;;;;14.20;82.80;;;;;;4974573;28;19971;-89
2022/04/22 10:39:52;;;;;;;;;;;14.30;83.20;;;;;;4992681;28;20008;-90
2022/04/22 10:42:17;;;;;;;;;;;14.30;82.60;;;;;;4986826;28;19946;-90
2022/04/22 10:47:38;;;;;;;;;;;14.30;83.00;;;;;;4973462;28;19989;-90
2022/04/22 10:50:24;;;;;;;;;;;14.30;82.90;;;;;;4973373;28;19946;-90
2022/04/22 10:53:05;;;;;;;;;;;14.30;83.20;;;;;;4982422;28;20387;-90
2022/04/22 10:55:37;;;;;;;;;;;14.30;82.30;;;;;;4992391;28;19944;-90
2022/04/22 10:58:19;;;;;;;;;;;14.30;82.60;;;;;;4992444;28;19947;-89
2022/04/22 11:00:46;;;;;;;;;;;14.30;82.50;;;;;;4992383;28;19948;-90
2022/04/22 11:03:24;;;;;;;;;;;14.30;82.60;;;;;;4979850;28;19956;-90
2022/04/22 11:05:50;;;;;;;;;;;14.30;82.30;;;;;;4972878;28;19943;-89
2022/04/22 11:08:24;;;;;;;;;;;14.30;81.70;;;;;;4972982;28;20399;-89
2022/04/22 11:10:51;;;;;;;;;;;14.30;81.80;;;;;;4972800;28;20026;-89
2022/04/22 11:13:39;;;;;;;;;;;14.30;82.30;;;;;;4985440;28;19947;-90
2022/04/22 11:16:05;;;;;;;;;;;14.40;82.30;;;;;;4990939;28;19966;-89
2022/04/22 11:18:30;;;;;;;;;;;14.40;82.30;;;;;;4991911;28;19942;-90
2022/04/22 11:21:03;;;;;;;;;;;14.50;82.00;;;;;;4992072;28;19940;-89
2022/04/22 11:23:36;;;;;;;;;;;14.50;81.90;;;;;;4977682;28;19949;-90
2022/04/22 11:26:03;;;;;;;;;;;14.60;81.70;;;;;;4972467;28;19943;-89
2022/04/22 11:28:33;;;;;;;;;;;14.70;81.50;;;;;;4972691;28;19942;-89
2022/04/22 11:31:02;;;;;;;;;;;14.70;81.50;;;;;;4988106;28;19947;-89
2022/04/22 11:33:33;;;;;;;;;;;14.60;81.40;;;;;;4985121;28;19955;-89
2022/04/22 11:36:03;;;;;;;;;;;14.70;81.00;;;;;;4983025;28;19973;-89
2022/04/22 11:38:28;;;;;;;;;;;14.70;81.40;;;;;;4989578;28;19945;-89
2022/04/22 11:40:54;;;;;;;;;;;14.80;81.50;;;;;;4988229;28;19966;-89
2022/04/22 11:43:21;;;;;;;;;;;14.80;81.80;;;;;;4988878;28;19947;-89
2022/04/22 11:45:50;;;;;;;;;;;14.80;81.80;;;;;;4985214;28;19948;-90
2022/04/22 11:48:19;;;;;;;;;;;14.80;81.70;;;;;;4985116;28;19980;-89
2022/04/22 11:50:46;;;;;;;;;;;14.80;81.50;;;;;;4986726;28;20031;-89
2022/04/22 11:53:15;;;;;;;;;;;14.80;81.70;;;;;;4988062;28;19948;-89
2022/04/22 11:55:45;;;;;;;;;;;14.70;82.20;;;;;;4986833;28;20007;-89
2022/04/22 11:58:16;;;;;;;;;;;14.60;82.30;;;;;;4989352;28;20411;-89
2022/04/22 12:06:14;;;;;;;;;;;14.70;82.10;;;;;;4985582;28;20082;-89
2022/04/22 12:08:49;;;;;;;;;;;14.80;82.40;;;;;;4992897;28;19944;-89
2022/04/22 12:11:16;;;;;;;;;;;14.80;82.50;;;;;;4982908;28;19944;-90
2022/04/22 12:13:41;;;;;;;;;;;14.90;81.60;;;;;;4986598;28;20456;-90
2022/04/22 12:16:07;;;;;;;;;;;15.00;81.00;;;;;;4992310;28;19970;-89
2022/04/22 12:18:33;;;;;;;;;;;15.10;81.10;;;;;;4985810;28;19954;-89
2022/04/22 12:20:59;;;;;;;;;;;15.10;80.90;;;;;;4991000;28;19957;-89
2022/04/22 12:23:35;;;;;;;;;;;15.20;80.60;;;;;;4981607;28;20071;-90
2022/04/22 12:26:01;;;;;;;;;;;15.10;80.80;;;;;;4987607;28;19953;-90
2022/04/22 12:28:27;;;;;;;;;;;15.10;79.90;;;;;;5019746;28;19951;-89
2022/04/22 12:30:53;;;;;;;;;;;15.10;79.60;;;;;;4995472;28;20422;-89
2022/04/22 12:33:20;;;;;;;;;;;15.00;79.80;;;;;;4995950;28;19992;-89
2022/04/22 12:35:46;;;;;;;;;;;15.00;79.40;;;;;;4983276;22;19975;-90
2022/04/22 12:38:13;;;;;;;;;;;14.80;79.60;;;;;;5028778;28;20197;-90
2022/04/22 12:40:49;;;;;;;;;;;14.80;78.80;;;;;;4968345;28;19953;-89
2022/04/22 12:43:28;;;;;;;;;;;14.60;78.60;;;;;;4966704;28;19955;-90
2022/04/22 12:54:12;;;;;;;;;;;14.40;78.30;;;;;;4965009;28;19959;-89
2022/04/22 12:56:38;;;;;;;;;;;14.40;78.30;;;;;;4967340;28;19984;-89
2022/04/22 12:59:04;;;;;;;;;;;14.40;78.70;;;;;;4964257;28;20308;-89
2022/04/22 13:01:36;;;;;;;;;;;14.40;79.40;;;;;;4962529;28;20732;-89
2022/04/22 13:04:03;;;;;;;;;;;14.40;79.30;;;;;;4968783;28;19945;-89
2022/04/22 13:06:35;;;;;;;;;;;14.40;79.40;;;;;;4961168;28;20042;-90
2022/04/22 13:09:00;;;;;;;;;;;14.40;80.40;;;;;;4960984;28;20030;-89
2022/04/22 13:11:26;;;;;;;;;;;14.40;80.60;;;;;;4970876;28;20367;-90
2022/04/22 13:13:51;;;;;;;;;;;14.50;80.70;;;;;;4964822;28;20356;-89
2022/04/22 13:16:17;;;;;;;;;;;14.50;80.60;;;;;;4964044;28;19992;-89
2022/04/22 13:18:42;;;;;;;;;;;14.60;79.50;;;;;;4969033;28;19958;-90
2022/04/22 13:21:08;;;;;;;;;;;14.50;79.80;;;;;;4962569;28;19947;-89
2022/04/22 13:23:34;;;;;;;;;;;14.50;80.20;;;;;;4965685;28;20044;-89
2022/04/22 13:25:59;;;;;;;;;;;14.50;79.90;;;;;;4962817;28;19942;-89
2022/04/22 13:28:25;;;;;;;;;;;14.50;80.40;;;;;;4965435;28;19945;-90
2022/04/22 13:30:50;;;;;;;;;;;14.50;80.80;;;;;;4962657;28;19947;-90
2022/04/22 13:33:16;;;;;;;;;;;14.50;80.00;;;;;;4965794;28;20022;-90
2022/04/22 13:35:42;;;;;;;;;;;14.40;80.30;;;;;;4954264;28;20004;-90
2022/04/22 13:38:07;;;;;;;;;;;14.40;80.90;;;;;;4963106;28;20038;-90
2022/04/22 13:40:33;;;;;;;;;;;14.40;80.90;;;;;;4969103;28;19949;-90
2022/04/22 13:42:58;;;;;;;;;;;14.40;81.40;;;;;;4966331;28;19956;-89
2022/04/22 13:53:53;;;;;;;;;;;14.50;81.30;;;;;;5011057;28;19960;-89
2022/04/22 13:56:18;;;;;;;;;;;14.60;82.10;;;;;;4970348;28;19965;-89
2022/04/22 13:58:44;;;;;;;;;;;14.60;81.50;;;;;;4963243;28;20328;-89
2022/04/22 14:01:09;;;;;;;;;;;14.60;81.70;;;;;;4967466;28;19990;-90
2022/04/22 14:03:35;;;;;;;;;;;14.70;81.70;;;;;;4967109;28;19976;-90
2022/04/22 14:06:01;;;;;;;;;;;14.70;81.40;;;;;;4972371;28;19997;-89
2022/04/22 14:08:26;;;;;;;;;;;14.80;81.40;;;;;;4970333;28;19941;-89
2022/04/22 14:10:52;;;;;;;;;;;14.70;80.60;;;;;;4969958;28;19953;-89
2022/04/22 14:13:17;;;;;;;;;;;14.60;81.60;;;;;;4964135;28;19946;-90
2022/04/22 14:15:43;;;;;;;;;;;14.40;82.10;;;;;;4966830;28;19988;-89
2022/04/22 14:18:09;;;;;;;;;;;14.30;82.30;;;;;;4975394;28;20401;-89
2022/04/22 14:20:35;;;;;;;;;;;14.30;83.00;;;;;;4970289;28;19954;-89
2022/04/22 14:23:01;;;;;;;;;;;14.10;83.40;;;;;;4974672;28;19951;-89
2022/04/22 14:25:26;;;;;;;;;;;14.00;83.70;;;;;;4973221;28;19970;-89
2022/04/22 14:27:52;;;;;;;;;;;13.80;84.20;;;;;;4970704;28;19952;-89
2022/04/22 14:30:18;;;;;;;;;;;13.60;85.00;;;;;;4969332;28;20287;-89
2022/04/22 14:32:43;;;;;;;;;;;13.50;85.30;;;;;;4967888;28;20311;-89
2022/04/22 14:35:09;;;;;;;;;;;13.40;85.60;;;;;;4963952;28;19976;-89
2022/04/22 14:37:35;;;;;;;;;;;13.40;85.80;;;;;;5054566;28;19961;-89
2022/04/22 14:40:01;;;;;;;;;;;13.30;85.90;;;;;;4977559;28;19950;-89
2022/04/22 14:42:27;;;;;;;;;;;13.30;85.90;;;;;;4975114;28;19984;-89
2022/04/22 14:44:52;;;;;;;;;;;13.30;86.10;;;;;;4962997;28;19989;-89
2022/04/22 14:47:18;;;;;;;;;;;13.30;85.80;;;;;;4970150;28;19948;-89
2022/04/22 14:49:46;;;;;;;;;;;13.30;85.40;;;;;;4971554;28;19951;-89
2022/04/22 14:52:12;;;;;;;;;;;13.40;85.50;;;;;;4962959;28;19944;-89
2022/04/22 14:54:39;;;;;;;;;;;13.40;85.10;;;;;;5036324;28;19980;-89
2022/04/22 14:57:05;;;;;;;;;;;13.40;84.30;;;;;;4973956;28;20056;-89
2022/04/22 14:59:31;;;;;;;;;;;13.40;84.40;;;;;;4966435;28;19944;-89
2022/04/22 15:01:57;;;;;;;;;;;13.50;84.20;;;;;;4959793;28;19971;-89
2022/04/22 15:04:22;;;;;;;;;;;13.60;83.90;;;;;;4969679;28;20057;-89
2022/04/22 15:06:48;;;;;;;;;;;13.70;83.80;;;;;;4952864;28;20445;-89
2022/04/22 15:09:16;;;;;;;;;;;13.80;83.80;;;;;;4973321;28;20060;-89
2022/04/22 15:11:42;;;;;;;;;;;13.80;83.50;;;;;;4975296;28;20403;-89
2022/04/22 15:14:08;;;;;;;;;;;13.80;83.30;;;;;;4965081;28;19951;-89
2022/04/22 15:16:33;;;;;;;;;;;13.80;83.70;;;;;;4962401;28;20080;-89
2022/04/22 15:24:27;;;;;;;;;;;13.80;83.40;;;;;;4961972;28;19985;-89
2022/04/22 15:26:54;;;;;;;;;;;13.90;83.60;;;;;;4958614;28;19985;-89
2022/04/22 15:29:20;;;;;;;;;;;13.90;83.60;;;;;;4965072;28;19985;-89
2022/04/22 15:31:45;;;;;;;;;;;13.90;83.60;;;;;;4967703;28;20415;-90
2022/04/22 15:34:11;;;;;;;;;;;13.90;83.50;;;;;;4970828;28;20360;-89
2022/04/22 15:36:41;;;;;;;;;;;13.90;83.40;;;;;;4963877;28;20151;-89